createdAt,value
2023-07-31T00:08:01.849Z,98919.63
2023-07-31T00:18:07.830Z,98926.33
2023-07-31T00:28:13.613Z,98934.77
2023-07-31T00:38:19.357Z,98939.54
2023-07-31T00:48:26.735Z,98933.41
2023-07-31T00:58:32.897Z,98930.27
2023-07-31T01:08:46.996Z,98948.95
2023-07-31T01:18:52.691Z,98967.19
2023-07-31T01:29:04.167Z,98963.71
2023-07-31T01:39:10.114Z,98965.62
2023-07-31T01:49:15.772Z,98967.10
2023-07-31T01:59:21.585Z,98961.35
2023-07-31T02:09:27.317Z,98967.41
2023-07-31T02:19:33.140Z,98974.58
2023-07-31T02:29:38.778Z,98978.14
2023-07-31T02:39:44.873Z,98979.02
2023-07-31T02:49:50.586Z,98984.96
2023-07-31T02:59:56.405Z,98978.77
2023-07-31T03:10:02.216Z,98984.59
2023-07-31T03:20:10.681Z,98996.31
2023-07-31T03:30:16.359Z,98995.55
2023-07-31T03:40:22.415Z,99003.55
2023-07-31T03:50:28.347Z,99020.05
2023-07-31T04:00:34.255Z,99026.23
2023-07-31T04:10:40.171Z,99033.04
2023-07-31T04:20:45.877Z,99032.05
2023-07-31T04:30:52.315Z,99031.66
2023-07-31T04:40:58.212Z,99035.96
2023-07-31T04:51:04.310Z,99042.83
2023-07-31T05:01:10.174Z,99044.21
2023-07-31T05:11:16.121Z,99046.21
2023-07-31T05:21:22.017Z,99040.60
2023-07-31T05:31:27.636Z,99046.23
2023-07-31T05:41:33.285Z,99054.41
2023-07-31T05:51:39.137Z,99054.14
2023-07-31T06:01:45.231Z,99051.52
2023-07-31T06:11:51.207Z,99061.15
2023-07-31T06:21:56.928Z,99072.84
2023-07-31T06:32:04.559Z,99063.02
2023-07-31T06:42:10.503Z,99068.31
2023-07-31T06:52:16.156Z,99071.52
2023-07-31T07:02:21.891Z,99069.92
2023-07-31T07:12:27.585Z,99074.91
2023-07-31T07:22:33.508Z,99075.90
2023-07-31T07:32:39.354Z,99074.14
2023-07-31T07:42:45.189Z,99073.27
2023-07-31T07:52:50.854Z,99063.62
2023-07-31T08:02:58.695Z,99070.21
2023-07-31T08:13:04.499Z,99077.36
2023-07-31T08:23:10.294Z,99084.92
2023-07-31T08:33:15.963Z,99087.08
2023-07-31T08:43:23.166Z,99082.06
2023-07-31T08:53:28.933Z,99076.30
2023-07-31T09:03:39.029Z,99067.79
2023-07-31T09:13:45.322Z,99067.76
2023-07-31T09:23:53.998Z,99065.52
2023-07-31T09:33:59.874Z,99059.41
2023-07-31T09:44:05.717Z,99062.56
2023-07-31T09:54:15.683Z,99062.40
2023-07-31T10:04:26.901Z,99055.70
2023-07-31T10:14:34.509Z,99049.96
2023-07-31T10:24:43.497Z,99036.30
2023-07-31T10:34:49.886Z,99027.30
2023-07-31T10:45:00.608Z,99013.56
2023-07-31T10:55:30.036Z,99011.00
2023-07-31T11:05:50.310Z,99007.30
2023-07-31T11:15:56.240Z,99002.67
2023-07-31T11:26:04.328Z,98991.30
2023-07-31T11:36:19.582Z,98980.64
2023-07-31T11:46:26.371Z,98974.95
2023-07-31T11:56:32.794Z,98968.67
2023-07-31T12:06:39.842Z,98964.72
2023-07-31T12:16:44.342Z,98956.73
2023-07-31T12:26:53.866Z,98948.40
2023-07-31T12:37:00.791Z,98933.98
2023-07-31T12:47:07.194Z,98925.41
2023-07-31T12:57:12.987Z,98922.34
2023-07-31T13:07:18.871Z,98913.75
2023-07-31T13:17:25.068Z,98893.39
2023-07-31T13:27:31.192Z,98881.08
2023-07-31T13:37:37.103Z,98876.34
2023-07-31T13:47:42.966Z,98869.02
2023-07-31T13:57:49.838Z,98865.16
2023-07-31T14:07:55.742Z,98857.65
2023-07-31T14:18:02.458Z,98857.52
2023-07-31T14:28:08.946Z,98853.02
2023-07-31T14:38:14.864Z,98851.25
2023-07-31T14:48:20.752Z,98844.90
2023-07-31T14:58:26.679Z,98847.38
2023-07-31T15:08:32.584Z,98836.55
2023-07-31T15:18:38.574Z,98836.40
2023-07-31T15:28:44.710Z,98836.29
2023-07-31T15:38:52.089Z,98833.21
2023-07-31T15:48:57.888Z,98831.16
2023-07-31T15:59:04.002Z,98819.09
2023-07-31T16:09:09.772Z,98816.88
2023-07-31T16:19:15.486Z,98809.17
2023-07-31T16:29:21.316Z,98798.06
2023-07-31T16:39:27.047Z,98789.21
2023-07-31T16:49:32.833Z,98782.65
2023-07-31T16:59:38.543Z,98787.52
2023-07-31T17:09:45.677Z,98795.13
2023-07-31T17:19:51.546Z,98794.71
2023-07-31T17:29:59.037Z,98801.03
2023-07-31T17:40:06.060Z,98801.94
2023-07-31T17:50:12.704Z,98797.61
2023-07-31T18:00:19.297Z,98800.27
2023-07-31T18:10:24.972Z,98806.36
2023-07-31T18:20:30.698Z,98811.77
2023-07-31T18:30:36.607Z,98807.34
2023-07-31T18:40:42.402Z,98813.70
2023-07-31T18:50:48.102Z,98815.20
2023-07-31T19:00:54.862Z,98822.42
2023-07-31T19:11:02.495Z,98821.29
2023-07-31T19:21:08.535Z,98821.23
2023-07-31T19:31:14.284Z,98812.60
2023-07-31T19:41:20.746Z,98805.46
2023-07-31T19:51:26.753Z,98797.81
2023-07-31T20:01:32.447Z,98784.67
2023-07-31T20:11:38.589Z,98769.46
2023-07-31T20:21:44.394Z,98772.41
2023-07-31T20:31:50.385Z,98766.55
2023-07-31T20:41:56.205Z,98760.67
2023-07-31T20:52:02.241Z,98748.46
2023-07-31T21:02:08.824Z,98733.50
2023-07-31T21:12:14.687Z,98726.66
2023-07-31T21:22:20.691Z,98715.74
2023-07-31T21:32:26.444Z,98707.70
2023-07-31T21:42:32.360Z,98697.21
2023-07-31T21:52:38.368Z,98686.02
2023-07-31T22:02:44.325Z,98682.29
2023-07-31T22:12:54.544Z,98673.93
2023-07-31T22:23:00.401Z,98660.13
2023-07-31T22:33:06.451Z,98650.00
2023-07-31T22:43:12.986Z,98645.09
2023-07-31T22:53:18.840Z,98638.17
2023-07-31T23:03:24.604Z,98638.84
2023-07-31T23:13:30.209Z,98627.98
2023-07-31T23:23:35.825Z,98617.98
2023-07-31T23:33:41.504Z,98609.95
2023-07-31T23:43:47.337Z,98603.60
2023-07-31T23:53:53.505Z,98594.30
